Time;durP1;ratioP1;P1;durP2;ratioP2;P2;SDS_P1;SDS_P2;PMS_P1;PMS_P2;Temp;Humidity;BMP_temperature;BMP_pressure;BME280_temperature;BME280_humidity;BME280_pressure;Samples;Min_cycle;Max_cycle;Signal;HPM_P1;HPM_P2
2022/04/27 00:00:17;;;;;;;6.90;6.30;;;7.30;99.90;;;;;;5072453;28;20247;-59
2022/04/27 00:02:44;;;;;;;7.67;7.07;;;7.30;99.90;;;;;;5072223;28;20299;-60
2022/04/27 00:05:12;;;;;;;9.50;7.17;;;7.30;99.90;;;;;;5072437;28;20591;-59
2022/04/27 00:07:39;;;;;;;7.73;6.97;;;7.20;99.90;;;;;;5072424;28;20210;-59
2022/04/27 00:10:07;;;;;;;9.40;7.10;;;7.20;99.90;;;;;;5072342;28;20196;-60
2022/04/27 00:12:35;;;;;;;7.70;6.67;;;7.20;99.90;;;;;;5072378;28;20201;-60
2022/04/27 00:15:04;;;;;;;8.93;6.83;;;7.10;99.90;;;;;;5072376;28;20204;-60
2022/04/27 00:17:31;;;;;;;10.63;7.10;;;7.10;99.90;;;;;;5072296;28;20193;-59
2022/04/27 00:19:58;;;;;;;7.50;6.70;;;7.10;99.90;;;;;;5073514;28;20229;-60
2022/04/27 00:22:25;;;;;;;7.60;6.90;;;7.10;99.90;;;;;;5075979;28;20209;-60
2022/04/27 00:24:52;;;;;;;8.03;6.63;;;7.20;99.90;;;;;;5076316;28;20199;-59
2022/04/27 00:27:19;;;;;;;10.33;7.00;;;7.10;99.90;;;;;;5076073;28;20607;-60
2022/04/27 00:29:46;;;;;;;6.90;6.30;;;7.10;99.90;;;;;;5076114;28;20213;-60
2022/04/27 00:32:14;;;;;;;6.70;6.03;;;7.10;99.90;;;;;;5075842;28;21035;-59
2022/04/27 00:34:41;;;;;;;6.80;6.10;;;7.00;99.90;;;;;;5076158;28;20205;-59
2022/04/27 00:37:08;;;;;;;8.10;6.63;;;6.90;99.90;;;;;;5076042;28;20219;-59
2022/04/27 00:39:35;;;;;;;6.90;6.20;;;6.90;99.90;;;;;;5075989;28;20355;-59
2022/04/27 00:42:13;;;;;;;7.83;7.03;;;6.90;99.90;;;;;;5075850;28;20212;-60
2022/04/27 00:44:43;;;;;;;9.37;6.33;;;6.90;99.90;;;;;;5075954;28;20196;-59
2022/04/27 00:47:10;;;;;;;7.57;6.63;;;6.80;99.90;;;;;;5079237;28;20641;-59
2022/04/27 00:49:43;;;;;;;7.57;6.67;;;6.80;99.90;;;;;;5075735;28;20212;-60
2022/04/27 00:52:12;;;;;;;7.63;6.83;;;6.80;99.90;;;;;;5075823;28;20185;-59
2022/04/27 00:54:40;;;;;;;6.93;6.33;;;6.80;99.90;;;;;;5075729;28;20204;-59
2022/04/27 00:57:08;;;;;;;7.47;6.87;;;6.80;99.90;;;;;;5075550;28;20196;-60
2022/04/27 00:59:36;;;;;;;7.30;6.30;;;6.70;99.90;;;;;;5075210;28;20209;-59
2022/04/27 01:02:04;;;;;;;7.17;6.47;;;6.70;99.90;;;;;;5075524;28;20580;-60
2022/04/27 01:04:32;;;;;;;7.47;6.57;;;6.70;99.90;;;;;;5075429;28;20242;-59
2022/04/27 01:07:00;;;;;;;7.10;6.40;;;6.70;99.90;;;;;;5075390;28;20212;-59
2022/04/27 01:09:29;;;;;;;7.77;6.97;;;6.70;99.90;;;;;;5075422;28;20197;-60
2022/04/27 01:11:57;;;;;;;8.30;6.67;;;6.60;99.90;;;;;;5075346;28;20192;-60
2022/04/27 01:14:24;;;;;;;7.83;7.03;;;6.60;99.90;;;;;;5075350;28;20197;-60
2022/04/27 01:16:52;;;;;;;8.50;7.70;;;6.60;99.90;;;;;;5074999;28;20566;-60
2022/04/27 01:19:19;;;;;;;7.70;7.00;;;6.50;99.90;;;;;;5075281;28;20203;-59
2022/04/27 01:21:49;;;;;;;9.90;6.97;;;6.60;99.90;;;;;;5075147;28;20216;-59
2022/04/27 01:24:19;;;;;;;8.07;7.27;;;6.50;99.90;;;;;;5074849;28;20736;-59
2022/04/27 01:26:47;;;;;;;8.70;7.80;;;6.50;99.90;;;;;;5075039;28;20566;-59
2022/04/27 01:29:16;;;;;;;8.77;7.40;;;6.50;99.90;;;;;;5074670;28;20748;-59
2022/04/27 01:31:43;;;;;;;9.43;7.67;;;6.40;99.90;;;;;;5074600;28;20245;-59
2022/04/27 01:34:11;;;;;;;10.53;7.30;;;6.40;99.90;;;;;;5074975;28;20203;-59
2022/04/27 01:36:38;;;;;;;10.40;7.50;;;6.40;99.90;;;;;;5074856;28;20211;-59
2022/04/27 01:39:07;;;;;;;8.33;7.53;;;6.30;99.90;;;;;;5074854;28;20215;-59
2022/04/27 01:41:34;;;;;;;8.30;6.97;;;6.30;99.90;;;;;;5074735;28;20223;-60
2022/04/27 01:44:01;;;;;;;8.40;7.60;;;6.30;99.90;;;;;;5074537;28;20713;-59
2022/04/27 01:46:29;;;;;;;8.40;7.50;;;6.30;99.90;;;;;;5074431;28;20236;-60
2022/04/27 01:48:56;;;;;;;8.53;7.67;;;6.20;99.90;;;;;;5074730;28;20203;-60
2022/04/27 01:54:14;;;;;;;8.80;7.50;;;6.20;99.90;;;;;;5074633;28;20200;-60
2022/04/27 01:54:17;;;;;;;7.93;7.20;;;6.20;99.90;;;;;;5074401;28;20653;-59
2022/04/27 01:56:45;;;;;;;9.03;8.03;;;6.20;99.90;;;;;;5074542;28;20187;-60
2022/04/27 01:59:12;;;;;;;7.73;6.97;;;6.20;99.90;;;;;;5074116;28;20227;-59
2022/04/27 02:01:39;;;;;;;8.83;7.40;;;6.20;99.90;;;;;;5074410;28;20222;-60
2022/04/27 02:04:06;;;;;;;8.77;7.87;;;6.10;99.90;;;;;;5074461;28;20531;-59
2022/04/27 02:06:35;;;;;;;8.20;7.40;;;6.10;99.90;;;;;;5074319;28;20206;-59
2022/04/27 02:09:03;;;;;;;8.80;8.00;;;6.10;99.90;;;;;;5074330;28;20553;-60
2022/04/27 02:11:32;;;;;;;8.13;7.40;;;6.10;99.90;;;;;;5073880;28;20234;-60
2022/04/27 02:13:59;;;;;;;10.00;8.03;;;6.10;99.90;;;;;;5074207;28;20210;-59
2022/04/27 02:16:27;;;;;;;8.80;7.90;;;6.10;99.90;;;;;;5074153;28;20190;-59
2022/04/27 02:18:55;;;;;;;8.87;8.00;;;6.00;99.90;;;;;;5075318;28;20203;-59
2022/04/27 02:21:23;;;;;;;12.07;8.47;;;6.00;99.90;;;;;;5074156;28;20245;-59
2022/04/27 02:23:50;;;;;;;9.27;7.87;;;6.00;99.90;;;;;;5073718;28;20200;-59
2022/04/27 02:26:18;;;;;;;9.37;7.77;;;6.00;99.90;;;;;;5073795;28;20604;-59
2022/04/27 02:28:46;;;;;;;10.07;8.77;;;5.90;99.90;;;;;;5073837;28;20683;-59
2022/04/27 02:31:13;;;;;;;9.77;8.77;;;5.90;99.90;;;;;;5073813;28;20214;-59
2022/04/27 02:33:40;;;;;;;9.43;8.27;;;5.90;99.90;;;;;;5073786;28;20213;-59
2022/04/27 02:36:07;;;;;;;9.30;8.37;;;5.90;99.90;;;;;;5073743;28;20199;-59
2022/04/27 02:38:34;;;;;;;9.83;8.77;;;5.90;99.90;;;;;;5073423;28;20679;-59
2022/04/27 02:41:03;;;;;;;12.03;8.80;;;5.80;99.90;;;;;;5073502;28;20210;-59
2022/04/27 02:43:31;;;;;;;9.67;8.67;;;5.80;99.90;;;;;;5072523;28;20322;-59
2022/04/27 02:46:00;;;;;;;9.70;8.80;;;5.80;99.90;;;;;;5073323;28;20661;-59
2022/04/27 02:48:27;;;;;;;12.33;9.63;;;5.80;99.90;;;;;;5073144;28;20665;-59
2022/04/27 02:53:38;;;;;;;10.37;9.27;;;5.70;99.90;;;;;;5073161;28;20190;-59
2022/04/27 02:56:06;;;;;;;10.57;9.57;;;5.70;99.90;;;;;;5073417;28;20218;-60
2022/04/27 02:58:33;;;;;;;10.43;9.43;;;5.70;99.90;;;;;;5072801;28;20649;-60
2022/04/27 03:01:01;;;;;;;12.10;9.80;;;5.70;99.90;;;;;;5073259;28;20219;-59
2022/04/27 03:03:28;;;;;;;13.57;9.87;;;5.60;99.90;;;;;;5073188;28;20199;-59
2022/04/27 03:05:55;;;;;;;10.57;9.53;;;5.60;99.90;;;;;;5072812;28;20663;-59
2022/04/27 03:08:22;;;;;;;10.80;9.80;;;5.60;99.90;;;;;;5073112;28;20204;-59
2022/04/27 03:10:49;;;;;;;10.60;9.70;;;5.60;99.90;;;;;;5073162;28;20209;-59
2022/04/27 03:13:16;;;;;;;10.80;9.70;;;5.60;99.90;;;;;;5073020;28;20210;-59
2022/04/27 03:15:43;;;;;;;10.47;9.37;;;5.50;99.90;;;;;;5072997;28;20199;-59
2022/04/27 03:18:23;;;;;;;11.67;10.57;;;5.40;99.90;;;;;;5072959;28;20204;-59
2022/04/27 03:20:50;;;;;;;11.20;9.77;;;5.30;99.90;;;;;;5072919;28;20510;-59
2022/04/27 03:23:18;;;;;;;13.27;10.30;;;5.30;99.90;;;;;;5072618;28;20205;-59
2022/04/27 03:25:45;;;;;;;11.23;10.13;;;5.30;99.90;;;;;;5072860;28;20199;-59
2022/04/27 03:28:12;;;;;;;11.63;10.43;;;5.40;99.90;;;;;;5072669;28;20199;-59
2022/04/27 03:30:39;;;;;;;11.20;9.37;;;5.60;99.90;;;;;;5072813;28;20529;-59
2022/04/27 03:33:06;;;;;;;11.13;10.03;;;5.70;99.90;;;;;;5072517;28;20199;-59
2022/04/27 03:35:35;;;;;;;11.23;10.23;;;5.80;99.90;;;;;;5072673;28;20191;-59
2022/04/27 03:38:03;;;;;;;11.03;10.03;;;5.80;99.90;;;;;;5072753;28;20282;-59
2022/04/27 03:40:30;;;;;;;12.23;9.73;;;5.90;99.90;;;;;;5072692;28;20207;-59
2022/04/27 03:42:57;;;;;;;11.37;10.40;;;5.90;99.90;;;;;;5072601;28;20207;-61
2022/04/27 03:45:24;;;;;;;10.80;9.80;;;5.90;99.90;;;;;;5072626;28;20203;-59
2022/04/27 03:47:52;;;;;;;10.63;9.60;;;5.90;99.90;;;;;;5072609;28;20203;-59
2022/04/27 03:50:19;;;;;;;10.57;9.53;;;5.90;99.90;;;;;;5072567;28;20195;-59
2022/04/27 03:52:48;;;;;;;13.73;10.77;;;5.80;99.90;;;;;;5072610;28;20602;-59
2022/04/27 03:55:15;;;;;;;10.90;9.90;;;5.80;99.90;;;;;;5072319;28;20209;-60
2022/04/27 03:57:42;;;;;;;11.83;10.40;;;5.80;99.90;;;;;;5071884;28;20237;-60
2022/04/27 04:00:10;;;;;;;15.13;10.90;;;5.70;99.90;;;;;;5072464;28;20180;-60
2022/04/27 04:02:37;;;;;;;11.87;10.60;;;5.70;99.90;;;;;;5072302;28;20321;-60
2022/04/27 04:05:05;;;;;;;12.97;11.53;;;5.70;99.90;;;;;;5072403;28;20191;-60
2022/04/27 04:07:32;;;;;;;12.23;11.03;;;5.70;99.90;;;;;;5072146;28;20198;-60
2022/04/27 04:10:01;;;;;;;12.00;10.80;;;5.70;99.90;;;;;;5072423;28;20199;-60
2022/04/27 04:12:28;;;;;;;14.20;11.13;;;5.70;99.90;;;;;;5072393;28;20198;-60
2022/04/27 04:14:55;;;;;;;11.37;10.17;;;5.70;99.90;;;;;;5072483;28;20199;-61
2022/04/27 04:17:22;;;;;;;13.03;11.70;;;5.70;99.90;;;;;;5074196;28;20195;-60
2022/04/27 04:19:49;;;;;;;13.83;11.27;;;5.60;99.90;;;;;;5073294;28;20191;-60
2022/04/27 04:22:16;;;;;;;11.77;10.70;;;5.50;99.90;;;;;;5072211;28;20251;-60
2022/04/27 04:28:29;;;;;;;13.40;12.00;;;5.50;99.90;;;;;;5071976;28;20653;-59
2022/04/27 04:30:17;;;;;;;13.57;11.50;;;5.50;99.90;;;;;;5072182;28;20278;-59
2022/04/27 04:32:44;;;;;;;12.20;11.00;;;5.50;99.90;;;;;;5072233;28;20202;-59
2022/04/27 04:35:11;;;;;;;13.23;11.97;;;5.50;99.90;;;;;;5072095;28;20199;-59
2022/04/27 04:37:38;;;;;;;14.20;11.90;;;5.50;99.90;;;;;;5071788;28;20669;-60
2022/04/27 04:40:06;;;;;;;13.70;12.20;;;5.40;99.90;;;;;;5072113;28;20199;-59
2022/04/27 04:42:35;;;;;;;13.37;11.83;;;5.40;99.90;;;;;;5071700;28;20215;-60
2022/04/27 04:45:02;;;;;;;14.67;12.40;;;5.50;99.90;;;;;;5072110;28;20231;-60
2022/04/27 04:47:29;;;;;;;13.20;11.80;;;5.50;99.90;;;;;;5071932;28;20207;-59
2022/04/27 04:49:56;;;;;;;12.30;11.00;;;5.50;99.90;;;;;;5071994;28;20199;-59
2022/04/27 04:52:23;;;;;;;14.00;12.57;;;5.50;99.90;;;;;;5072012;28;20290;-60
2022/04/27 04:54:50;;;;;;;13.33;11.33;;;5.50;99.90;;;;;;5071973;28;20202;-60
2022/04/27 04:57:17;;;;;;;15.07;12.07;;;5.50;99.90;;;;;;5071723;28;20203;-60
2022/04/27 04:59:45;;;;;;;11.97;10.83;;;5.50;99.90;;;;;;5071304;28;20249;-59
2022/04/27 05:02:12;;;;;;;12.60;11.37;;;5.50;99.90;;;;;;5071662;28;20207;-59
2022/04/27 05:04:39;;;;;;;13.67;12.20;;;5.60;99.90;;;;;;5071754;28;20248;-59
2022/04/27 05:07:06;;;;;;;11.93;10.70;;;5.60;99.90;;;;;;5074932;28;20199;-59
2022/04/27 05:09:33;;;;;;;12.60;11.33;;;5.70;99.90;;;;;;5075135;28;20660;-59
2022/04/27 05:12:00;;;;;;;13.77;11.67;;;5.70;99.90;;;;;;5075442;28;20397;-59
2022/04/27 05:14:27;;;;;;;13.50;11.80;;;5.80;99.90;;;;;;5075380;28;20202;-59
2022/04/27 05:16:55;;;;;;;12.00;10.80;;;5.80;99.90;;;;;;5075282;28;20203;-60
2022/04/27 05:19:22;;;;;;;12.33;11.23;;;6.10;99.90;;;;;;5075096;28;20207;-59
2022/04/27 05:21:49;;;;;;;12.77;11.47;;;6.20;99.90;;;;;;5075172;28;20267;-59
2022/04/27 05:24:16;;;;;;;13.87;11.30;;;6.30;99.90;;;;;;5075157;28;20204;-59
2022/04/27 05:26:43;;;;;;;12.03;10.93;;;6.30;99.90;;;;;;5074949;28;20195;-60
2022/04/27 05:31:57;;;;;;;11.97;10.77;;;6.50;99.90;;;;;;5075104;28;20170;-60
2022/04/27 05:34:25;;;;;;;11.57;10.47;;;6.60;99.90;;;;;;5074922;28;20213;-59
2022/04/27 05:36:53;;;;;;;11.73;10.53;;;6.70;99.90;;;;;;5074919;28;20197;-59
2022/04/27 05:39:21;;;;;;;12.37;11.17;;;6.80;99.90;;;;;;5074933;28;20209;-60
2022/04/27 05:41:49;;;;;;;12.03;10.83;;;6.80;99.90;;;;;;5074843;28;20666;-60
2022/04/27 05:44:17;;;;;;;11.43;10.27;;;6.90;99.90;;;;;;5074784;28;20198;-60
2022/04/27 05:46:44;;;;;;;10.60;9.50;;;7.10;99.90;;;;;;5074786;28;20229;-61
2022/04/27 05:49:12;;;;;;;10.67;9.63;;;7.70;99.90;;;;;;5074866;28;20726;-61
2022/04/27 05:51:39;;;;;;;11.03;9.63;;;8.30;99.90;;;;;;5074723;28;20260;-59
2022/04/27 05:54:06;;;;;;;10.70;9.73;;;8.60;99.90;;;;;;5075969;28;20267;-59
2022/04/27 05:56:34;;;;;;;9.80;8.90;;;8.70;99.90;;;;;;5075940;28;20195;-61
2022/04/27 05:59:01;;;;;;;10.03;9.20;;;9.00;99.90;;;;;;5074147;28;20237;-61
2022/04/27 06:01:29;;;;;;;10.37;9.13;;;9.10;99.90;;;;;;5074596;28;20206;-61
2022/04/27 06:03:56;;;;;;;10.30;8.43;;;9.40;99.90;;;;;;5074345;28;20285;-60
2022/04/27 06:06:25;;;;;;;9.80;8.80;;;9.70;99.90;;;;;;5074008;28;20214;-60
2022/04/27 06:08:52;;;;;;;9.27;8.37;;;10.20;99.90;;;;;;5074144;28;20568;-61
2022/04/27 06:11:19;;;;;;;9.30;8.40;;;10.50;99.90;;;;;;5073963;28;20207;-61
2022/04/27 06:13:46;;;;;;;9.77;8.80;;;10.50;99.90;;;;;;5073992;28;20236;-61
2022/04/27 06:16:14;;;;;;;8.57;7.77;;;10.90;99.90;;;;;;5073541;28;20571;-61
2022/04/27 06:18:41;;;;;;;8.63;7.93;;;11.10;99.90;;;;;;5073527;28;20656;-60
2022/04/27 06:21:08;;;;;;;11.00;8.97;;;11.20;99.90;;;;;;5073754;28;20260;-60
2022/04/27 06:23:38;;;;;;;9.27;8.37;;;11.20;99.90;;;;;;5073656;28;20291;-61
2022/04/27 06:26:06;;;;;;;9.37;8.50;;;11.50;99.90;;;;;;5073562;28;20535;-61
2022/04/27 06:28:33;;;;;;;8.73;8.03;;;11.90;99.90;;;;;;5073589;28;20278;-62
2022/04/27 06:31:01;;;;;;;10.47;8.60;;;12.10;99.90;;;;;;5073599;28;20297;-61
2022/04/27 06:33:28;;;;;;;10.00;9.10;;;12.00;99.90;;;;;;5073508;28;20191;-61
2022/04/27 06:35:55;;;;;;;9.70;8.80;;;12.00;99.90;;;;;;5073547;28;20198;-61
2022/04/27 06:38:22;;;;;;;9.20;8.17;;;12.40;99.90;;;;;;5073326;28;20199;-61
2022/04/27 06:40:50;;;;;;;9.00;8.27;;;12.80;99.90;;;;;;5073040;28;20203;-61
2022/04/27 06:43:17;;;;;;;9.63;8.73;;;12.70;99.90;;;;;;5072815;28;20211;-61
2022/04/27 06:45:44;;;;;;;10.03;9.03;;;12.60;99.90;;;;;;5073208;28;20230;-61
2022/04/27 06:48:11;;;;;;;10.57;7.70;;;12.80;99.90;;;;;;5073154;28;20195;-61
2022/04/27 06:50:38;;;;;;;9.07;8.07;;;13.00;99.90;;;;;;5073170;28;20203;-61
2022/04/27 06:53:06;;;;;;;9.40;8.50;;;13.20;99.90;;;;;;5073014;28;20200;-61
2022/04/27 06:55:33;;;;;;;9.50;8.70;;;13.30;99.90;;;;;;5073003;28;20199;-61
2022/04/27 06:58:01;;;;;;;10.73;8.77;;;13.20;99.90;;;;;;5072630;28;20201;-61
2022/04/27 07:00:28;;;;;;;10.00;8.73;;;13.70;99.90;;;;;;5072991;28;20188;-61
2022/04/27 07:02:56;;;;;;;8.93;8.10;;;13.70;99.90;;;;;;5072800;28;20211;-61
2022/04/27 07:05:25;;;;;;;9.90;8.93;;;13.80;99.90;;;;;;5072840;28;20224;-60
2022/04/27 07:07:53;;;;;;;9.23;8.33;;;13.90;99.90;;;;;;5072906;28;20725;-61
2022/04/27 07:10:20;;;;;;;9.67;8.77;;;14.00;99.90;;;;;;5072825;28;20205;-61
2022/04/27 07:12:47;;;;;;;10.10;9.03;;;14.40;99.90;;;;;;5072851;28;20298;-62
2022/04/27 07:15:15;;;;;;;9.57;8.67;;;14.50;99.90;;;;;;5072419;28;20581;-61
2022/04/27 07:17:42;;;;;;;9.63;8.73;;;14.80;99.90;;;;;;5072759;28;20215;-61
2022/04/27 07:20:10;;;;;;;9.37;8.47;;;14.80;89.30;;;;;;5072726;28;20210;-61
2022/04/27 07:22:37;;;;;;;10.03;8.87;;;15.10;69.70;;;;;;5072227;28;20218;-61
2022/04/27 07:25:05;;;;;;;10.17;9.20;;;15.10;54.90;;;;;;5072632;28;20204;-61
2022/04/27 07:27:32;;;;;;;9.57;8.70;;;15.20;57.50;;;;;;5072462;28;20210;-61
2022/04/27 07:29:59;;;;;;;10.50;8.77;;;15.40;38.90;;;;;;5072033;28;20206;-61
2022/04/27 07:32:28;;;;;;;9.50;8.50;;;15.20;28.50;;;;;;5072152;28;20233;-61
2022/04/27 07:34:55;;;;;;;9.90;8.27;;;15.60;23.40;;;;;;5072499;28;20206;-60
2022/04/27 07:37:22;;;;;;;10.07;8.20;;;15.50;26.00;;;;;;5072373;28;20627;-61
2022/04/27 07:39:49;;;;;;;9.03;8.00;;;15.40;12.50;;;;;;5072447;28;20198;-61
2022/04/27 07:42:16;;;;;;;9.40;7.83;;;15.70;7.60;;;;;;5071881;28;20214;-61
2022/04/27 07:44:43;;;;;;;8.70;7.53;;;15.80;2.40;;;;;;5072281;28;20202;-61
2022/04/27 07:47:13;;;;;;;9.13;8.23;;;15.60;1.00;;;;;;5072092;28;20238;-61
2022/04/27 07:49:41;;;;;;;9.80;8.30;;;15.40;1.00;;;;;;5072329;28;20205;-61
2022/04/27 07:52:08;;;;;;;8.20;7.33;;;16.10;1.00;;;;;;5072204;28;20215;-61
2022/04/27 07:54:35;;;;;;;8.23;7.43;;;15.80;1.00;;;;;;5072248;28;20206;-61
2022/04/27 07:57:02;;;;;;;7.63;6.83;;;15.70;1.00;;;;;;5072093;28;20205;-61
2022/04/27 07:59:30;;;;;;;9.20;6.93;;;16.20;1.00;;;;;;5071784;28;20257;-62
2022/04/27 08:01:57;;;;;;;7.30;6.50;;;16.40;1.00;;;;;;5072108;28;20289;-61
2022/04/27 08:04:24;;;;;;;6.47;5.77;;;16.20;1.00;;;;;;5071981;28;20206;-60
2022/04/27 08:06:52;;;;;;;7.23;6.10;;;16.50;1.00;;;;;;5072166;28;20302;-61
2022/04/27 08:09:19;;;;;;;7.67;6.90;;;16.60;1.00;;;;;;5072073;28;20198;-61
2022/04/27 08:11:46;;;;;;;6.33;5.77;;;16.60;1.00;;;;;;5071756;28;20660;-61
2022/04/27 08:14:13;;;;;;;6.57;5.90;;;16.60;1.00;;;;;;5072035;28;20199;-62
2022/04/27 08:16:40;;;;;;;6.03;5.43;;;16.80;1.00;;;;;;5071992;28;20242;-61
2022/04/27 08:19:07;;;;;;;8.57;5.30;;;17.00;1.00;;;;;;5072040;28;20203;-61
2022/04/27 08:21:34;;;;;;;6.07;5.40;;;17.10;1.00;;;;;;5071612;28;20295;-61
2022/04/27 08:24:06;;;;;;;5.77;4.93;;;16.60;1.00;;;;;;5071886;28;20309;-61
2022/04/27 08:26:34;;;;;;;6.73;4.63;;;17.00;1.00;;;;;;5071559;28;20189;-62
2022/04/27 08:29:01;;;;;;;7.20;4.73;;;17.30;1.00;;;;;;5071769;28;20611;-62
2022/04/27 08:31:27;;;;;;;5.50;4.82;;;17.50;1.00;;;;;;5071437;28;20663;-62
2022/04/27 08:33:55;;;;;;;4.57;4.18;;;18.00;1.00;;;;;;5071888;28;20198;-61
2022/04/27 08:36:22;;;;;;;6.22;4.70;;;17.70;1.00;;;;;;5071728;28;20209;-62
2022/04/27 08:38:51;;;;;;;5.80;4.85;;;17.50;1.00;;;;;;5071773;28;20189;-61
2022/04/27 08:41:19;;;;;;;6.57;4.30;;;17.50;1.00;;;;;;5073756;28;20195;-61
2022/04/27 08:43:46;;;;;;;4.93;3.70;;;17.80;1.00;;;;;;5075290;28;20222;-61
2022/04/27 08:46:15;;;;;;;5.00;3.85;;;17.70;1.00;;;;;;5075478;28;20198;-61
2022/04/27 08:48:46;;;;;;;4.53;3.55;;;18.00;1.00;;;;;;5075206;28;20234;-61
2022/04/27 08:51:13;;;;;;;5.63;4.20;;;18.40;1.00;;;;;;5075407;28;20270;-60
2022/04/27 08:53:40;;;;;;;3.83;3.50;;;18.10;1.00;;;;;;5075329;28;20217;-61
2022/04/27 08:56:08;;;;;;;5.00;3.60;;;17.80;1.00;;;;;;5075295;28;20210;-61
2022/04/27 08:58:36;;;;;;;3.53;3.10;;;18.00;1.00;;;;;;5075022;28;20229;-62
2022/04/27 09:01:03;;;;;;;3.75;3.20;;;18.10;1.00;;;;;;5075203;28;20191;-61
2022/04/27 09:03:32;;;;;;;6.35;3.95;;;18.30;1.00;;;;;;5075109;28;20260;-61
2022/04/27 09:06:02;;;;;;;4.18;3.50;;;18.30;1.00;;;;;;5075220;28;20199;-61
2022/04/27 09:08:39;;;;;;;4.10;3.30;;;18.50;1.00;;;;;;5074862;28;20206;-62
2022/04/27 09:11:17;;;;;;;4.05;3.33;;;18.50;1.00;;;;;;5075215;28;20182;-61
2022/04/27 09:13:50;;;;;;;3.58;2.95;;;18.40;1.00;;;;;;5074976;28;20174;-61
2022/04/27 09:16:19;;;;;;;3.58;3.28;;;18.70;1.00;;;;;;5075048;28;20273;-61
2022/04/27 09:21:31;;;;;;;4.70;3.67;;;18.80;1.00;;;;;;5030555;28;20202;-62
2022/04/27 09:24:03;;;;;;;4.32;3.75;;;19.10;1.00;;;;;;5074816;28;20302;-62
2022/04/27 09:26:31;;;;;;;5.13;3.92;;;18.60;1.00;;;;;;5074783;28;20191;-61
2022/04/27 09:28:59;;;;;;;4.03;3.63;;;18.40;1.00;;;;;;5074700;28;20253;-61
2022/04/27 09:31:31;;;;;;;4.68;4.15;;;18.80;1.00;;;;;;5074460;28;20258;-62
2022/04/27 09:33:59;;;;;;;6.07;4.63;;;18.60;1.00;;;;;;5074734;28;20561;-61
2022/04/27 09:36:27;;;;;;;5.63;3.78;;;18.40;1.00;;;;;;5074738;28;20241;-63
2022/04/27 09:38:56;;;;;;;4.95;4.40;;;18.80;1.00;;;;;;5074653;28;20195;-61
2022/04/27 09:41:40;;;;;;;6.75;4.00;;;18.80;1.00;;;;;;5074570;28;20209;-62
2022/04/27 09:44:09;;;;;;;4.53;4.13;;;19.20;1.00;;;;;;5074478;28;20226;-61
2022/04/27 09:46:41;;;;;;;5.57;4.20;;;18.70;1.00;;;;;;5073815;28;20599;-61
2022/04/27 09:49:15;;;;;;;4.70;4.30;;;19.20;1.00;;;;;;5073493;28;20248;-61
2022/04/27 09:51:49;;;;;;;4.90;4.40;;;19.50;1.00;;;;;;5073399;28;20256;-60
2022/04/27 09:54:21;;;;;;;5.35;4.63;;;19.10;1.00;;;;;;5073840;28;20213;-60
2022/04/27 09:56:51;;;;;;;4.78;4.30;;;18.70;1.00;;;;;;5074225;28;20194;-61
2022/04/27 09:59:21;;;;;;;4.63;4.20;;;19.30;1.00;;;;;;5073769;28;20230;-60
2022/04/27 10:01:50;;;;;;;5.90;4.25;;;20.10;1.00;;;;;;5073937;28;20240;-60
2022/04/27 10:04:21;;;;;;;4.82;4.32;;;20.30;1.00;;;;;;5074099;28;20218;-60
2022/04/27 10:06:49;;;;;;;5.47;4.38;;;20.60;1.00;;;;;;5074139;28;20190;-60
2022/04/27 10:09:16;;;;;;;4.90;4.50;;;19.80;1.00;;;;;;5074001;28;20301;-60
2022/04/27 10:11:44;;;;;;;6.25;4.93;;;19.20;1.00;;;;;;5073943;28;20207;-60
2022/04/27 10:14:12;;;;;;;5.40;4.88;;;19.60;1.00;;;;;;5073968;28;20187;-61
2022/04/27 10:16:40;;;;;;;5.55;5.00;;;19.70;1.00;;;;;;5073821;28;20211;-60
2022/04/27 10:19:11;;;;;;;5.55;5.00;;;19.30;1.00;;;;;;5073828;28;20240;-60
2022/04/27 10:21:43;;;;;;;5.63;5.10;;;19.40;1.00;;;;;;5073807;28;20183;-60
2022/04/27 10:24:11;;;;;;;5.32;4.82;;;19.20;1.00;;;;;;5073374;28;20207;-59
2022/04/27 10:26:39;;;;;;;6.68;5.13;;;19.60;1.00;;;;;;5073551;28;20195;-60
2022/04/27 10:29:08;;;;;;;5.22;4.72;;;19.50;1.00;;;;;;5073588;28;20252;-60
2022/04/27 10:32:02;;;;;;;5.28;4.78;;;19.90;1.00;;;;;;5073540;28;20205;-59
2022/04/27 10:34:29;;;;;;;6.22;5.53;;;19.80;1.00;;;;;;5073596;28;20230;-59
2022/04/27 10:36:57;;;;;;;6.10;5.50;;;20.10;1.00;;;;;;5073426;28;20245;-59
2022/04/27 10:39:25;;;;;;;5.88;5.38;;;19.70;1.00;;;;;;5073400;28;20202;-60
2022/04/27 10:42:31;;;;;;;5.95;5.45;;;20.10;1.00;;;;;;5073100;28;20644;-59
2022/04/27 10:45:12;;;;;;;6.40;5.80;;;19.50;1.00;;;;;;5073321;28;20229;-59
2022/04/27 10:47:43;;;;;;;7.00;5.90;;;19.60;1.00;;;;;;5073317;28;20541;-59
2022/04/27 10:50:30;;;;;;;7.32;5.40;;;20.10;1.00;;;;;;5073273;28;20191;-60
2022/04/27 10:53:01;;;;;;;6.38;5.78;;;20.70;1.00;;;;;;5073264;28;20301;-59
2022/04/27 10:55:47;;;;;;;6.97;5.85;;;20.80;1.00;;;;;;5072829;28;20198;-60
2022/04/27 10:58:16;;;;;;;6.97;6.35;;;20.50;1.00;;;;;;5072777;28;20230;-59
2022/04/27 11:01:26;;;;;;;5.88;5.38;;;20.50;1.00;;;;;;5072701;28;20636;-59
2022/04/27 11:04:11;;;;;;;8.32;6.13;;;20.70;1.00;;;;;;5072279;28;20617;-59
2022/04/27 11:07:18;;;;;;;6.45;5.85;;;20.80;1.00;;;;;;5072987;28;20197;-59
2022/04/27 11:10:16;;;;;;;6.47;5.97;;;21.20;1.00;;;;;;5072966;28;20577;-60
2022/04/27 11:12:48;;;;;;;7.07;5.68;;;21.10;1.00;;;;;;5072558;28;20586;-59
2022/04/27 11:15:21;;;;;;;8.02;6.47;;;20.50;1.00;;;;;;5072828;28;20187;-59
2022/04/27 11:17:56;;;;;;;6.57;6.03;;;20.70;1.00;;;;;;5072793;28;20187;-59
2022/04/27 11:20:30;;;;;;;7.03;6.18;;;20.30;1.00;;;;;;5072755;28;20186;-58
2022/04/27 11:22:58;;;;;;;6.57;5.88;;;20.50;1.00;;;;;;5072572;28;20195;-59
2022/04/27 11:25:27;;;;;;;6.45;5.88;;;20.80;1.00;;;;;;5072160;28;21096;-60
2022/04/27 11:27:54;;;;;;;7.38;6.68;;;21.60;1.00;;;;;;5072330;28;20649;-59
2022/04/27 11:30:22;;;;;;;7.65;6.85;;;21.20;1.00;;;;;;5072282;28;20198;-59
2022/04/27 11:32:50;;;;;;;6.57;6.05;;;21.10;1.00;;;;;;5072194;28;20191;-58
2022/04/27 11:35:18;;;;;;;6.68;6.05;;;21.20;1.00;;;;;;5072484;28;20191;-58
2022/04/27 11:37:47;;;;;;;6.63;6.05;;;21.00;1.00;;;;;;5072354;28;20202;-59
2022/04/27 11:40:16;;;;;;;7.03;6.28;;;21.00;1.00;;;;;;5072021;28;20206;-60
2022/04/27 11:42:44;;;;;;;6.78;6.18;;;20.90;1.00;;;;;;5072406;28;20218;-60
2022/04/27 11:45:13;;;;;;;7.13;6.50;;;20.70;1.00;;;;;;5071961;28;20254;-60
2022/04/27 11:47:40;;;;;;;7.60;6.57;;;20.60;1.00;;;;;;5072291;28;20276;-60
2022/04/27 11:50:08;;;;;;;7.15;6.45;;;19.90;1.00;;;;;;5072290;28;20221;-61
2022/04/27 11:52:37;;;;;;;7.57;6.80;;;20.20;1.00;;;;;;5072280;28;20213;-61
2022/04/27 11:55:11;;;;;;;6.90;6.20;;;21.00;1.00;;;;;;5072210;28;20187;-60
2022/04/27 11:57:39;;;;;;;7.30;6.32;;;20.80;1.00;;;;;;5071740;28;20633;-60
2022/04/27 12:00:08;;;;;;;7.80;7.00;;;21.20;1.00;;;;;;5071766;28;20300;-60
2022/04/27 12:02:35;;;;;;;7.20;6.60;;;20.80;1.00;;;;;;5071904;28;20203;-60
2022/04/27 12:05:03;;;;;;;8.15;6.00;;;21.20;1.00;;;;;;5072088;28;20214;-60
2022/04/27 12:07:36;;;;;;;6.95;6.35;;;21.20;1.00;;;;;;5072133;28;20186;-60
2022/04/27 12:10:05;;;;;;;7.75;7.15;;;21.40;1.00;;;;;;5072140;28;20233;-61
2022/04/27 12:12:34;;;;;;;7.28;6.57;;;21.10;1.00;;;;;;5072051;28;20199;-61
2022/04/27 12:15:07;;;;;;;7.40;6.70;;;21.20;1.00;;;;;;5073720;28;20198;-60
2022/04/27 12:17:48;;;;;;;8.57;7.53;;;21.80;1.00;;;;;;5076148;28;20211;-60
2022/04/27 12:20:37;;;;;;;7.63;6.82;;;21.80;1.00;;;;;;5076054;28;20722;-61
2022/04/27 12:23:09;;;;;;;7.50;6.80;;;21.70;1.00;;;;;;5076498;28;20191;-63
2022/04/27 12:25:38;;;;;;;8.52;7.72;;;21.80;1.00;;;;;;5076743;28;20631;-64
2022/04/27 12:28:07;;;;;;;8.30;6.97;;;21.60;1.00;;;;;;5075742;28;20209;-63
2022/04/27 12:30:41;;;;;;;8.43;7.63;;;21.70;1.00;;;;;;5075615;28;20203;-63
2022/04/27 12:33:08;;;;;;;7.70;7.10;;;21.80;1.00;;;;;;5075564;28;20236;-63
2022/04/27 12:38:21;;;;;;;8.32;7.50;;;21.90;1.00;;;;;;5075697;28;20179;-63
2022/04/27 12:40:49;;;;;;;8.27;7.45;;;21.80;1.00;;;;;;5076381;28;20203;-63
2022/04/27 12:43:22;;;;;;;8.48;7.68;;;21.70;1.00;;;;;;5076071;28;20256;-63
2022/04/27 12:46:04;;;;;;;8.40;7.70;;;22.20;1.00;;;;;;5075322;28;20643;-63
2022/04/27 12:48:32;;;;;;;8.38;7.50;;;22.40;1.00;;;;;;5075428;28;20209;-63
2022/04/27 12:50:59;;;;;;;8.32;7.32;;;22.10;1.00;;;;;;5075496;28;20203;-63
2022/04/27 12:53:26;;;;;;;8.43;7.63;;;22.20;1.00;;;;;;5075158;28;20198;-63
2022/04/27 12:56:08;;;;;;;8.57;7.75;;;22.00;1.00;;;;;;5075030;28;20568;-63
2022/04/27 12:58:37;;;;;;;8.32;7.53;;;21.60;1.00;;;;;;5074938;28;20239;-63
2022/04/27 13:01:04;;;;;;;9.25;8.20;;;21.90;1.00;;;;;;5075270;28;20533;-63
2022/04/27 13:03:32;;;;;;;11.52;7.47;;;21.20;1.00;;;;;;5075307;28;20559;-63
2022/04/27 13:05:58;;;;;;;8.75;8.00;;;20.70;1.00;;;;;;5075172;28;20222;-62
2022/04/27 13:08:25;;;;;;;9.18;8.25;;;20.00;1.00;;;;;;5075196;28;20191;-63
2022/04/27 13:13:38;;;;;;;8.90;8.20;;;18.80;1.00;;;;;;5074757;28;20179;-60
2022/04/27 13:16:06;;;;;;;9.45;8.55;;;18.30;1.00;;;;;;5074983;28;20206;-60